Time;durP1;ratioP1;P1;durP2;ratioP2;P2;SDS_P1;SDS_P2;PMS_P1;PMS_P2;Temp;Humidity;BMP_temperature;BMP_pressure;BME280_temperature;BME280_humidity;BME280_pressure;Samples;Min_cycle;Max_cycle;Signal;HPM_P1;HPM_P2
2022/07/05 00:01:44;;;;;;;;;;;;;;;16.60;100.00;91214.75;4994899;28;19921;-68
2022/07/05 00:04:10;;;;;;;;;;;;;;;16.59;100.00;91215.88;4994652;28;19949;-68
2022/07/05 00:06:35;;;;;;;;;;;;;;;16.52;100.00;91209.47;4994585;28;19921;-68
2022/07/05 00:09:00;;;;;;;;;;;;;;;16.57;100.00;91207.38;4994683;28;20296;-68
2022/07/05 00:11:26;;;;;;;;;;;;;;;16.56;100.00;91196.94;4977105;28;19969;-68
2022/07/05 00:13:51;;;;;;;;;;;;;;;16.61;100.00;91197.50;4994491;28;19944;-68
2022/07/05 00:16:16;;;;;;;;;;;;;;;16.63;100.00;91194.47;4994533;28;19936;-67
2022/07/05 00:18:42;;;;;;;;;;;;;;;16.60;100.00;91192.47;4994492;28;19913;-68
2022/07/05 00:21:07;;;;;;;;;;;;;;;16.61;100.00;91196.72;4994466;28;19975;-68
2022/07/05 00:23:32;;;;;;;;;;;;;;;16.54;100.00;91191.91;4994362;28;19920;-68
2022/07/05 00:25:58;;;;;;;;;;;;;;;16.36;100.00;91188.69;4994396;28;19917;-68
2022/07/05 00:28:23;;;;;;;;;;;;;;;16.25;100.00;91186.78;4994409;28;19925;-69
2022/07/05 00:30:48;;;;;;;;;;;;;;;16.20;100.00;91178.97;4994351;28;19936;-68
2022/07/05 00:33:14;;;;;;;;;;;;;;;16.16;100.00;91176.94;4993859;28;20004;-69
2022/07/05 00:35:39;;;;;;;;;;;;;;;16.15;100.00;91178.06;4994175;28;19979;-68
2022/07/05 00:38:04;;;;;;;;;;;;;;;16.19;100.00;91164.75;4994202;28;19921;-68
2022/07/05 00:40:30;;;;;;;;;;;;;;;16.24;100.00;91166.41;4994102;28;19914;-68
2022/07/05 00:42:55;;;;;;;;;;;;;;;16.18;100.00;91163.19;4993973;28;20288;-68
2022/07/05 00:45:21;;;;;;;;;;;;;;;16.20;100.00;91155.56;4994059;28;19914;-68
2022/07/05 00:47:46;;;;;;;;;;;;;;;16.17;100.00;91165.09;4994044;28;20439;-68
2022/07/05 00:50:11;;;;;;;;;;;;;;;16.12;100.00;91170.69;4993966;28;19921;-68
2022/07/05 00:52:37;;;;;;;;;;;;;;;16.16;100.00;91163.53;4993774;28;19913;-68
2022/07/05 00:55:02;;;;;;;;;;;;;;;16.15;100.00;91161.19;4993862;28;20375;-68
2022/07/05 00:57:28;;;;;;;;;;;;;;;16.16;100.00;91158.16;4993897;28;19914;-67
2022/07/05 00:59:53;;;;;;;;;;;;;;;16.28;100.00;91160.06;4993832;28;19917;-68
2022/07/05 01:02:19;;;;;;;;;;;;;;;16.30;100.00;91151.66;4993626;28;20395;-68
2022/07/05 01:04:46;;;;;;;;;;;;;;;16.26;100.00;91154.25;4993546;28;19918;-68
2022/07/05 01:07:11;;;;;;;;;;;;;;;16.24;100.00;91155.69;4993677;28;19914;-68
2022/07/05 01:09:37;;;;;;;;;;;;;;;16.18;100.00;91157.81;4993618;28;19921;-68
2022/07/05 01:12:03;;;;;;;;;;;;;;;16.08;100.00;91160.94;4993399;28;19914;-68
2022/07/05 01:14:28;;;;;;;;;;;;;;;16.07;100.00;91156.69;4993530;28;19924;-68
2022/07/05 01:16:54;;;;;;;;;;;;;;;15.97;100.00;91149.91;4993462;28;19973;-68
2022/07/05 01:19:20;;;;;;;;;;;;;;;15.92;100.00;91155.47;4993464;28;19925;-68
2022/07/05 01:21:47;;;;;;;;;;;;;;;15.94;100.00;91153.25;4993338;28;20315;-68
2022/07/05 01:24:14;;;;;;;;;;;;;;;15.91;100.00;91145.06;4993241;28;19914;-68
2022/07/05 01:26:40;;;;;;;;;;;;;;;15.88;100.00;91146.53;4993282;28;19949;-68
2022/07/05 01:29:07;;;;;;;;;;;;;;;15.87;100.00;91145.75;4992979;28;20005;-68
2022/07/05 01:31:32;;;;;;;;;;;;;;;15.93;100.00;91156.25;4993129;28;19914;-69
2022/07/05 01:33:58;;;;;;;;;;;;;;;15.91;100.00;91147.75;4992902;28;19921;-67
2022/07/05 01:36:23;;;;;;;;;;;;;;;15.78;100.00;91150.44;4993000;28;19957;-67
2022/07/05 01:38:49;;;;;;;;;;;;;;;15.60;100.00;91150.97;4993017;28;20012;-67
2022/07/05 01:41:14;;;;;;;;;;;;;;;15.57;100.00;91157.75;4992920;28;20283;-67
2022/07/05 01:43:40;;;;;;;;;;;;;;;15.43;100.00;91158.06;4992801;28;20448;-67
2022/07/05 01:46:06;;;;;;;;;;;;;;;15.35;100.00;91160.84;4992437;28;19918;-68
2022/07/05 01:48:35;;;;;;;;;;;;;;;15.37;100.00;91161.28;4992897;28;20004;-68
2022/07/05 01:51:03;;;;;;;;;;;;;;;15.35;100.00;91164.31;4992863;28;19917;-67
2022/07/05 01:53:29;;;;;;;;;;;;;;;15.38;100.00;91163.63;4992606;28;20259;-68
2022/07/05 01:55:58;;;;;;;;;;;;;;;15.34;100.00;91170.78;4992769;28;19964;-68
2022/07/05 01:58:27;;;;;;;;;;;;;;;15.33;100.00;91181.84;4992694;28;19993;-67
2022/07/05 02:00:53;;;;;;;;;;;;;;;15.20;100.00;91179.13;4992729;28;20029;-67
2022/07/05 02:03:19;;;;;;;;;;;;;;;15.21;100.00;91169.19;5143940;23;19961;-64
2022/07/05 02:05:45;;;;;;;;;;;;;;;15.17;100.00;91174.41;5012087;28;19959;-64
2022/07/05 02:08:11;;;;;;;;;;;;;;;15.12;100.00;91173.81;5012035;28;19918;-64
2022/07/05 02:10:37;;;;;;;;;;;;;;;15.07;100.00;91177.50;5011977;28;19914;-64
2022/07/05 02:13:02;;;;;;;;;;;;;;;15.06;100.00;91175.16;5011771;28;19913;-64
2022/07/05 02:15:29;;;;;;;;;;;;;;;15.01;100.00;91170.78;5011944;28;19919;-64
2022/07/05 02:17:54;;;;;;;;;;;;;;;14.93;100.00;91166.28;5011907;28;20024;-64
2022/07/05 02:20:20;;;;;;;;;;;;;;;14.90;100.00;91165.03;5011900;28;20045;-64
2022/07/05 02:22:45;;;;;;;;;;;;;;;14.88;100.00;91161.13;5011745;28;19925;-64
2022/07/05 02:25:10;;;;;;;;;;;;;;;14.86;100.00;91160.69;5011824;28;19914;-64
2022/07/05 02:27:36;;;;;;;;;;;;;;;14.91;100.00;91161.25;5011783;28;19936;-64
2022/07/05 02:30:01;;;;;;;;;;;;;;;14.98;100.00;91161.50;5011807;28;19920;-64
2022/07/05 02:32:27;;;;;;;;;;;;;;;15.03;100.00;91162.41;5011715;28;20307;-65
2022/07/05 02:34:52;;;;;;;;;;;;;;;15.01;100.00;91159.28;5011802;28;19914;-64
2022/07/05 02:37:17;;;;;;;;;;;;;;;15.07;100.00;91153.38;4994098;28;19913;-64
2022/07/05 02:39:42;;;;;;;;;;;;;;;15.11;100.00;91159.63;5011664;28;19924;-65
2022/07/05 02:42:08;;;;;;;;;;;;;;;15.16;100.00;91156.78;5011637;28;20371;-65
2022/07/05 02:44:33;;;;;;;;;;;;;;;15.30;100.00;91156.47;5011614;28;19925;-65
2022/07/05 02:46:58;;;;;;;;;;;;;;;15.28;100.00;91158.69;5011701;28;19917;-65
2022/07/05 02:49:23;;;;;;;;;;;;;;;15.23;100.00;91158.91;4994080;28;19983;-65
2022/07/05 02:51:49;;;;;;;;;;;;;;;15.21;100.00;91156.56;5011692;28;19964;-65
2022/07/05 02:54:14;;;;;;;;;;;;;;;15.20;100.00;91157.69;5011546;28;19964;-65
2022/07/05 02:56:39;;;;;;;;;;;;;;;15.19;100.00;91149.97;5012341;28;19924;-65
2022/07/05 02:59:05;;;;;;;;;;;;;;;15.20;100.00;91146.94;5015524;28;19913;-65
2022/07/05 03:01:30;;;;;;;;;;;;;;;15.16;100.00;91156.00;5015573;28;19918;-64
2022/07/05 03:03:56;;;;;;;;;;;;;;;15.18;100.00;91146.50;5015192;28;19969;-65
2022/07/05 03:06:21;;;;;;;;;;;;;;;15.20;100.00;91146.16;5015416;28;20421;-65
2022/07/05 03:08:46;;;;;;;;;;;;;;;15.24;100.00;91150.53;5015357;28;19914;-65
2022/07/05 03:11:11;;;;;;;;;;;;;;;15.25;100.00;91144.06;5015325;28;20283;-65
2022/07/05 03:13:37;;;;;;;;;;;;;;;15.28;100.00;91142.59;5015248;28;19920;-65
2022/07/05 03:16:02;;;;;;;;;;;;;;;15.31;100.00;91141.19;5015242;28;19936;-64
2022/07/05 03:18:27;;;;;;;;;;;;;;;15.43;100.00;91138.50;5015149;28;20379;-65
2022/07/05 03:20:53;;;;;;;;;;;;;;;15.51;100.00;91145.69;5015149;28;19940;-65
2022/07/05 03:23:18;;;;;;;;;;;;;;;15.66;100.00;91133.56;5014888;28;19917;-65
2022/07/05 03:25:43;;;;;;;;;;;;;;;15.81;100.00;91133.69;5014948;28;19917;-65
2022/07/05 03:28:09;;;;;;;;;;;;;;;15.86;100.00;91130.78;5014938;28;19921;-64
2022/07/05 03:30:34;;;;;;;;;;;;;;;15.85;100.00;91139.16;5014879;28;20393;-65
2022/07/05 03:32:59;;;;;;;;;;;;;;;15.83;100.00;91147.53;5014861;28;19913;-65
2022/07/05 03:35:26;;;;;;;;;;;;;;;15.82;100.00;91140.63;5014804;28;19976;-65
2022/07/05 03:37:51;;;;;;;;;;;;;;;15.74;100.00;91138.03;5014782;28;19921;-65
2022/07/05 03:40:16;;;;;;;;;;;;;;;15.72;100.00;91138.34;5014673;28;19914;-65
2022/07/05 03:42:42;;;;;;;;;;;;;;;15.64;100.00;91139.25;5014376;28;20084;-65
2022/07/05 03:45:07;;;;;;;;;;;;;;;15.69;100.00;91140.94;5014255;28;19913;-67
2022/07/05 03:47:33;;;;;;;;;;;;;;;15.79;100.00;91143.97;5014349;28;19918;-66
2022/07/05 03:49:58;;;;;;;;;;;;;;;15.95;100.00;91156.72;5014321;28;19917;-66
2022/07/05 03:52:24;;;;;;;;;;;;;;;16.03;100.00;91155.81;5014179;28;20004;-65
2022/07/05 03:54:49;;;;;;;;;;;;;;;16.15;100.00;91156.59;5014136;28;20350;-66
2022/07/05 03:57:14;;;;;;;;;;;;;;;16.29;100.00;91153.56;5014255;28;19913;-63
2022/07/05 03:59:40;;;;;;;;;;;;;;;16.32;100.00;91157.47;5014208;28;19952;-64
2022/07/05 04:02:05;;;;;;;;;;;;;;;16.17;100.00;91167.78;5014102;28;19996;-63
2022/07/05 04:04:31;;;;;;;;;;;;;;;16.00;100.00;91161.84;5013799;28;20382;-66
2022/07/05 04:06:56;;;;;;;;;;;;;;;15.75;100.00;91167.19;5014010;28;19913;-64
2022/07/05 04:09:21;;;;;;;;;;;;;;;15.67;100.00;91157.38;5013743;28;19913;-64
2022/07/05 04:11:47;;;;;;;;;;;;;;;15.55;100.00;91158.09;5014013;28;20298;-64
2022/07/05 04:14:12;;;;;;;;;;;;;;;15.56;100.00;91154.28;5013851;28;19968;-64
2022/07/05 04:16:37;;;;;;;;;;;;;;;15.72;100.00;91153.66;5013903;28;20013;-65
2022/07/05 04:19:03;;;;;;;;;;;;;;;15.76;100.00;91143.84;5013895;28;19936;-65
2022/07/05 04:21:28;;;;;;;;;;;;;;;15.84;100.00;91146.41;5013913;28;20307;-65
2022/07/05 04:23:54;;;;;;;;;;;;;;;15.91;100.00;91148.53;5013737;28;19917;-64
2022/07/05 04:26:19;;;;;;;;;;;;;;;16.03;100.00;91153.13;5013754;28;19914;-65
2022/07/05 04:28:44;;;;;;;;;;;;;;;16.09;100.00;91146.41;5013676;28;19913;-65
2022/07/05 04:31:10;;;;;;;;;;;;;;;16.27;100.00;91152.34;5013857;28;20362;-65
2022/07/05 04:33:35;;;;;;;;;;;;;;;16.37;100.00;91151.88;5013686;28;20455;-65
2022/07/05 04:36:00;;;;;;;;;;;;;;;16.57;100.00;91152.84;5013706;28;20386;-65
2022/07/05 04:38:26;;;;;;;;;;;;;;;16.57;100.00;91145.59;5013553;28;20016;-65
2022/07/05 04:40:51;;;;;;;;;;;;;;;16.70;100.00;91149.03;5013519;28;19913;-65
2022/07/05 04:43:16;;;;;;;;;;;;;;;16.77;100.00;91149.25;5013336;28;19913;-65
2022/07/05 04:45:42;;;;;;;;;;;;;;;17.00;100.00;91144.13;5013443;28;19913;-64
2022/07/05 04:48:08;;;;;;;;;;;;;;;17.20;100.00;91147.72;5013408;28;19914;-64
2022/07/05 04:50:33;;;;;;;;;;;;;;;17.40;100.00;91145.97;5013391;28;20004;-64
2022/07/05 04:52:58;;;;;;;;;;;;;;;17.53;100.00;91140.19;5013294;28;20383;-64
2022/07/05 04:55:23;;;;;;;;;;;;;;;17.74;100.00;91145.34;5013337;28;19924;-65
2022/07/05 04:57:49;;;;;;;;;;;;;;;17.89;100.00;91147.25;5013226;28;20386;-65
2022/07/05 05:00:14;;;;;;;;;;;;;;;18.02;100.00;91155.25;5013148;28;20012;-65
2022/07/05 05:02:41;;;;;;;;;;;;;;;18.19;100.00;91144.91;5012744;28;19935;-65
2022/07/05 05:05:06;;;;;;;;;;;;;;;18.25;100.00;91142.72;5013131;28;19921;-65
2022/07/05 05:07:32;;;;;;;;;;;;;;;18.49;100.00;91152.50;5013059;28;19913;-65
2022/07/05 05:09:58;;;;;;;;;;;;;;;18.79;100.00;91156.28;5013023;28;20395;-65
2022/07/05 05:12:23;;;;;;;;;;;;;;;19.06;100.00;91151.03;5012870;28;19917;-65
2022/07/05 05:14:49;;;;;;;;;;;;;;;19.33;100.00;91139.25;5013133;28;19976;-65
2022/07/05 05:17:14;;;;;;;;;;;;;;;19.55;100.00;91145.06;5012859;28;20004;-65
2022/07/05 05:19:39;;;;;;;;;;;;;;;19.82;100.00;91133.22;5012079;28;19917;-65
2022/07/05 05:22:05;;;;;;;;;;;;;;;20.13;99.60;91136.81;5012902;28;19913;-65
2022/07/05 05:24:31;;;;;;;;;;;;;;;20.27;98.00;91137.06;5012656;28;19925;-65
2022/07/05 05:26:56;;;;;;;;;;;;;;;20.47;97.71;91140.47;5012755;28;20013;-65
2022/07/05 05:29:22;;;;;;;;;;;;;;;20.66;97.75;91136.88;5012750;28;19995;-65
2022/07/05 05:31:47;;;;;;;;;;;;;;;20.48;92.96;91140.09;5012703;28;20013;-65
2022/07/05 05:34:12;;;;;;;;;;;;;;;20.52;94.90;91140.94;5012449;28;19913;-64
2022/07/05 05:36:38;;;;;;;;;;;;;;;20.75;91.65;91145.50;5012630;28;20315;-64
2022/07/05 05:39:03;;;;;;;;;;;;;;;20.70;92.44;91143.91;5012581;28;19977;-64
2022/07/05 05:41:29;;;;;;;;;;;;;;;20.85;94.72;91151.06;5012486;28;19921;-64
2022/07/05 05:43:54;;;;;;;;;;;;;;;20.89;91.12;91154.59;5012191;28;19920;-64
2022/07/05 05:46:19;;;;;;;;;;;;;;;21.13;96.64;91150.63;5012283;28;19920;-65
2022/07/05 05:48:45;;;;;;;;;;;;;;;21.48;90.28;91153.06;5012275;28;19979;-65
2022/07/05 05:51:10;;;;;;;;;;;;;;;24.21;76.72;91155.22;5012322;28;19977;-65
2022/07/05 05:53:35;;;;;;;;;;;;;;;27.51;62.21;91159.59;5012075;28;20004;-65
2022/07/05 05:56:01;;;;;;;;;;;;;;;30.29;51.97;91161.47;5012216;28;19924;-65
2022/07/05 05:58:26;;;;;;;;;;;;;;;31.48;48.42;91156.31;4994489;28;19924;-65
2022/07/05 06:00:52;;;;;;;;;;;;;;;33.03;44.44;91165.28;5012223;28;20482;-65
2022/07/05 06:03:21;;;;;;;;;;;;;;;33.69;41.72;91157.22;5011926;28;20348;-65
2022/07/05 06:05:47;;;;;;;;;;;;;;;35.76;38.90;91167.50;5012151;28;19914;-66
2022/07/05 06:08:12;;;;;;;;;;;;;;;36.26;37.70;91170.91;5012077;28;19920;-66
2022/07/05 06:10:38;;;;;;;;;;;;;;;36.89;36.59;91170.03;5011987;28;20359;-65
2022/07/05 06:13:05;;;;;;;;;;;;;;;36.80;36.20;91164.53;5011919;28;19917;-65
2022/07/05 06:15:30;;;;;;;;;;;;;;;37.82;34.68;91170.38;5011940;28;19917;-65
2022/07/05 06:17:56;;;;;;;;;;;;;;;37.32;36.32;91162.50;5011883;28;19969;-65
2022/07/05 06:20:25;;;;;;;;;;;;;;;38.05;33.95;91167.59;5012081;28;19917;-65
2022/07/05 06:22:51;;;;;;;;;;;;;;;37.80;34.04;91167.31;5011717;28;20012;-65
2022/07/05 06:25:16;;;;;;;;;;;;;;;36.11;36.31;91165.22;5011866;28;20004;-65
2022/07/05 06:27:42;;;;;;;;;;;;;;;36.48;35.58;91168.75;5011816;28;19983;-66
2022/07/05 06:30:09;;;;;;;;;;;;;;;36.87;35.54;91163.44;5011672;28;19913;-65
2022/07/05 06:32:34;;;;;;;;;;;;;;;38.59;33.34;91167.59;5011763;28;19917;-66
2022/07/05 06:35:00;;;;;;;;;;;;;;;39.86;31.70;91161.75;5011932;28;19972;-66
2022/07/05 06:37:25;;;;;;;;;;;;;;;40.42;30.91;91167.28;5011827;28;20281;-66
2022/07/05 06:39:50;;;;;;;;;;;;;;;38.70;32.38;91167.81;5011832;28;19917;-66
2022/07/05 06:42:16;;;;;;;;;;;;;;;39.30;32.57;91169.31;5011524;28;19929;-66
2022/07/05 06:44:41;;;;;;;;;;;;;;;40.82;30.98;91166.38;5011700;28;19914;-66
2022/07/05 06:47:07;;;;;;;;;;;;;;;41.71;29.19;91166.38;5011794;28;19925;-66
2022/07/05 06:49:32;;;;;;;;;;;;;;;43.76;27.86;91173.00;5011658;28;20343;-66
2022/07/05 06:51:58;;;;;;;;;;;;;;;44.65;26.52;91166.31;5011867;28;19914;-66
2022/07/05 06:54:23;;;;;;;;;;;;;;;42.92;28.52;91169.41;5011392;28;20457;-66
2022/07/05 06:56:48;;;;;;;;;;;;;;;41.91;28.41;91160.63;5011629;28;20366;-66
2022/07/05 06:59:14;;;;;;;;;;;;;;;40.48;29.50;91160.50;5011594;28;19913;-66
2022/07/05 07:01:39;;;;;;;;;;;;;;;40.84;30.01;91159.09;5011561;28;19913;-66
2022/07/05 07:04:04;;;;;;;;;;;;;;;40.83;30.12;91154.75;5011233;28;19921;-66
2022/07/05 07:06:30;;;;;;;;;;;;;;;41.89;28.64;91160.38;5011578;28;19917;-66
2022/07/05 07:11:39;;;;;;;;;;;;;;;40.95;29.14;91153.59;5011517;28;19925;-66
2022/07/05 07:14:04;;;;;;;;;;;;;;;39.27;31.09;91155.59;5011573;28;19913;-66
2022/07/05 07:16:30;;;;;;;;;;;;;;;40.77;29.73;91153.16;5011375;28;20383;-66
2022/07/05 07:18:55;;;;;;;;;;;;;;;41.32;29.33;91149.34;5011284;28;19913;-65
2022/07/05 07:21:21;;;;;;;;;;;;;;;41.13;29.78;91151.72;5011504;28;19983;-66
2022/07/05 07:23:46;;;;;;;;;;;;;;;40.33;29.75;91146.63;5011319;28;19921;-66
2022/07/05 07:26:13;;;;;;;;;;;;;;;41.24;28.67;91149.81;5011233;28;20477;-66
2022/07/05 07:28:38;;;;;;;;;;;;;;;41.98;28.97;91151.00;5011221;28;20056;-65
2022/07/05 07:31:04;;;;;;;;;;;;;;;42.42;29.72;91147.63;5011333;28;19961;-66
2022/07/05 07:33:29;;;;;;;;;;;;;;;43.73;27.52;91142.44;5011239;28;19952;-67
2022/07/05 07:35:54;;;;;;;;;;;;;;;42.11;28.66;91149.31;5011507;28;19994;-67
2022/07/05 07:38:20;;;;;;;;;;;;;;;41.17;29.77;91135.50;5011329;28;19935;-67
2022/07/05 07:40:45;;;;;;;;;;;;;;;39.78;31.42;91139.13;5011190;28;20298;-67
2022/07/05 07:43:10;;;;;;;;;;;;;;;40.78;29.10;91135.16;5012644;28;19917;-67
2022/07/05 07:45:36;;;;;;;;;;;;;;;42.51;27.77;91138.28;5014854;28;19921;-67
2022/07/05 07:48:01;;;;;;;;;;;;;;;42.45;28.07;91141.81;5014697;28;19913;-66
2022/07/05 07:50:26;;;;;;;;;;;;;;;43.72;27.56;91149.31;5014549;28;19920;-66
2022/07/05 07:52:52;;;;;;;;;;;;;;;44.05;27.14;91157.63;5014591;28;19920;-66
2022/07/05 07:55:17;;;;;;;;;;;;;;;43.20;27.03;91149.81;5014594;28;19914;-67
2022/07/05 07:57:43;;;;;;;;;;;;;;;42.04;28.66;91160.19;5014570;28;19920;-66
2022/07/05 08:00:08;;;;;;;;;;;;;;;43.76;28.14;91156.16;5014549;28;19917;-67
2022/07/05 08:02:34;;;;;;;;;;;;;;;41.81;28.38;91150.91;5014095;28;19921;-68
2022/07/05 08:04:59;;;;;;;;;;;;;;;41.90;30.33;91158.34;5014403;28;19967;-67
2022/07/05 08:07:25;;;;;;;;;;;;;;;43.76;28.12;91156.16;5014432;28;19913;-67
2022/07/05 08:09:52;;;;;;;;;;;;;;;44.71;24.70;91155.06;5014362;28;19920;-67
2022/07/05 08:12:18;;;;;;;;;;;;;;;44.60;25.63;91155.13;5014234;28;19913;-67
2022/07/05 08:14:43;;;;;;;;;;;;;;;45.92;26.49;91154.63;5014251;28;19924;-67
2022/07/05 08:17:08;;;;;;;;;;;;;;;43.72;26.70;91157.72;5014227;28;19923;-67
2022/07/05 08:22:19;;;;;;;;;;;;;;;43.82;28.09;91159.72;5013975;28;19920;-67
2022/07/05 08:24:45;;;;;;;;;;;;;;;43.38;26.35;91157.72;5013997;28;19928;-67
2022/07/05 08:27:10;;;;;;;;;;;;;;;44.43;25.95;91164.38;5014057;28;19981;-67
2022/07/05 08:29:36;;;;;;;;;;;;;;;45.04;25.36;91160.47;5014032;28;19913;-67
2022/07/05 08:32:01;;;;;;;;;;;;;;;41.55;27.83;91149.00;5013846;28;19923;-68
2022/07/05 08:34:27;;;;;;;;;;;;;;;41.48;27.66;91143.09;5013796;28;19913;-67
2022/07/05 08:36:52;;;;;;;;;;;;;;;43.22;27.11;91144.47;5013798;28;19913;-67
2022/07/05 08:39:18;;;;;;;;;;;;;;;44.10;26.24;91151.25;5013823;28;19913;-67
2022/07/05 08:41:48;;;;;;;;;;;;;;;43.88;26.07;91151.31;5013713;28;19925;-68
2022/07/05 08:44:13;;;;;;;;;;;;;;;41.70;25.64;91148.09;5013622;28;19913;-68
2022/07/05 08:46:40;;;;;;;;;;;;;;;38.93;29.31;91144.69;5013661;28;19917;-68
2022/07/05 08:49:05;;;;;;;;;;;;;;;39.76;28.09;91141.59;5013580;28;19913;-67
2022/07/05 08:51:33;;;;;;;;;;;;;;;41.83;28.62;91151.22;5013592;28;19917;-67
2022/07/05 08:53:59;;;;;;;;;;;;;;;43.09;26.63;91139.41;5013384;28;20008;-67
2022/07/05 08:56:25;;;;;;;;;;;;;;;42.62;26.94;91147.47;5013342;28;19920;-67
2022/07/05 08:58:50;;;;;;;;;;;;;;;44.21;26.55;91145.59;5013459;28;19913;-68
2022/07/05 09:01:15;;;;;;;;;;;;;;;41.95;26.57;91135.22;5013347;28;19913;-67
2022/07/05 09:03:48;;;;;;;;;;;;;;;41.73;27.52;91135.91;5012990;28;19928;-67
2022/07/05 09:06:16;;;;;;;;;;;;;;;42.64;25.83;91138.56;5013286;28;19968;-67
2022/07/05 09:08:42;;;;;;;;;;;;;;;42.07;27.41;91137.56;5013223;28;19996;-67
2022/07/05 09:11:09;;;;;;;;;;;;;;;40.45;28.05;91130.81;5013230;28;19957;-67
2022/07/05 09:13:35;;;;;;;;;;;;;;;39.34;29.92;91133.69;5013126;28;19924;-67
2022/07/05 09:16:01;;;;;;;;;;;;;;;40.48;28.22;91132.59;5013158;28;19913;-68
2022/07/05 09:18:44;;;;;;;;;;;;;;;41.19;28.61;91128.16;5013081;28;19920;-68
2022/07/05 09:21:12;;;;;;;;;;;;;;;42.50;27.96;91134.72;5012944;28;20004;-68
2022/07/05 09:23:38;;;;;;;;;;;;;;;43.09;26.19;91133.78;5012775;28;20306;-68
2022/07/05 09:26:03;;;;;;;;;;;;;;;42.95;26.36;91126.41;5012821;28;20418;-68
2022/07/05 09:28:28;;;;;;;;;;;;;;;41.69;27.27;91119.38;5012780;28;19921;-68
2022/07/05 09:30:54;;;;;;;;;;;;;;;41.04;28.49;91121.22;5012841;28;19917;-68
2022/07/05 09:33:19;;;;;;;;;;;;;;;40.83;28.35;91120.50;5012745;28;19968;-68
2022/07/05 09:35:57;;;;;;;;;;;;;;;40.98;28.35;91115.56;5012744;28;19917;-68
2022/07/05 09:38:24;;;;;;;;;;;;;;;41.43;28.52;91122.25;5012812;28;19919;-68
2022/07/05 09:40:51;;;;;;;;;;;;;;;42.17;26.90;91121.38;5012699;28;20402;-68
2022/07/05 09:43:23;;;;;;;;;;;;;;;44.38;26.35;91114.66;5012452;28;19913;-68
2022/07/05 09:45:59;;;;;;;;;;;;;;;43.28;26.23;91122.84;5012631;28;19913;-66
2022/07/05 09:48:25;;;;;;;;;;;;;;;41.98;27.67;91120.25;5012469;28;19917;-68
2022/07/05 09:50:53;;;;;;;;;;;;;;;41.79;27.88;91117.88;5012228;28;19917;-68
2022/07/05 09:53:19;;;;;;;;;;;;;;;42.60;27.99;91110.06;5012413;28;19967;-68
2022/07/05 09:56:03;;;;;;;;;;;;;;;42.17;28.10;91108.16;5012423;28;19957;-68
2022/07/05 09:58:29;;;;;;;;;;;;;;;43.08;26.64;91104.25;5003070;28;19918;-68
2022/07/05 10:00:54;;;;;;;;;;;;;;;39.97;29.45;91105.44;4992763;28;20351;-68
2022/07/05 10:03:19;;;;;;;;;;;;;;;39.72;29.97;91101.28;4992232;28;19968;-68
2022/07/05 10:05:45;;;;;;;;;;;;;;;38.90;31.15;91101.13;4991698;28;20004;-68
2022/07/05 10:08:12;;;;;;;;;;;;;;;39.29;30.85;91092.59;4992429;28;19960;-68
2022/07/05 10:10:38;;;;;;;;;;;;;;;40.16;29.88;91092.72;4992230;28;20008;-69
2022/07/05 10:13:05;;;;;;;;;;;;;;;40.56;28.95;91094.66;4992254;28;20017;-68
2022/07/05 10:15:32;;;;;;;;;;;;;;;40.00;30.07;91099.63;4992341;28;19963;-68
2022/07/05 10:18:04;;;;;;;;;;;;;;;42.01;28.04;91089.28;4992324;28;19913;-69
2022/07/05 10:20:34;;;;;;;;;;;;;;;41.48;27.97;91087.22;4991826;28;19945;-69
2022/07/05 10:23:03;;;;;;;;;;;;;;;40.54;28.83;91090.81;4992118;28;20016;-68
2022/07/05 10:25:29;;;;;;;;;;;;;;;40.74;29.66;91092.78;4992304;28;19918;-68
2022/07/05 10:27:56;;;;;;;;;;;;;;;40.23;28.70;91092.25;4975029;28;20379;-68
2022/07/05 10:30:25;;;;;;;;;;;;;;;40.18;28.47;91095.00;4992221;28;19918;-68
2022/07/05 10:32:50;;;;;;;;;;;;;;;38.03;29.99;91085.94;4992064;28;20311;-68
2022/07/05 10:35:17;;;;;;;;;;;;;;;38.86;30.70;91095.00;4974313;28;20405;-68
2022/07/05 10:37:42;;;;;;;;;;;;;;;39.32;29.89;91088.88;4992107;28;20000;-68
2022/07/05 10:40:08;;;;;;;;;;;;;;;39.42;30.13;91095.06;4992085;28;20418;-67
2022/07/05 10:42:38;;;;;;;;;;;;;;;39.96;29.69;91087.16;4991898;28;20395;-65
2022/07/05 10:45:21;;;;;;;;;;;;;;;38.42;31.60;91083.13;4992313;28;19917;-67
2022/07/05 10:48:06;;;;;;;;;;;;;;;39.29;30.88;91070.34;4992042;28;20307;-67
2022/07/05 10:50:42;;;;;;;;;;;;;;;39.90;30.52;91078.72;4991886;28;19917;-66
2022/07/05 10:53:07;;;;;;;;;;;;;;;39.99;31.45;91075.81;4991920;28;19914;-66
2022/07/05 10:55:46;;;;;;;;;;;;;;;39.72;30.75;91076.22;4991950;28;19920;-67
2022/07/05 10:58:18;;;;;;;;;;;;;;;40.08;29.11;91067.31;4974421;28;19920;-66
2022/07/05 11:00:45;;;;;;;;;;;;;;;39.49;29.52;91072.38;4992051;28;19918;-65
2022/07/05 11:03:29;;;;;;;;;;;;;;;40.67;29.37;91061.25;4991650;28;20438;-65
2022/07/05 11:05:55;;;;;;;;;;;;;;;41.16;28.04;91073.31;4992061;28;19914;-65
2022/07/05 11:08:20;;;;;;;;;;;;;;;41.05;27.36;91073.25;4991973;28;19914;-65
2022/07/05 11:11:04;;;;;;;;;;;;;;;39.07;29.65;91076.34;4992019;28;19914;-65
2022/07/05 11:13:36;;;;;;;;;;;;;;;40.59;30.27;91068.56;4991883;28;20281;-65
2022/07/05 11:16:21;;;;;;;;;;;;;;;38.98;29.35;91067.34;4992003;28;19918;-65
2022/07/05 11:18:46;;;;;;;;;;;;;;;39.11;31.36;91060.22;4994640;28;19914;-65
2022/07/05 11:21:17;;;;;;;;;;;;;;;38.44;30.75;91070.28;4995690;28;20316;-65
2022/07/05 11:23:43;;;;;;;;;;;;;;;37.27;31.64;91059.69;4995749;28;19972;-65
2022/07/05 11:26:08;;;;;;;;;;;;;;;36.88;32.27;91056.81;4995531;28;19918;-65
2022/07/05 11:28:44;;;;;;;;;;;;;;;37.24;33.95;91049.50;4995468;28;19957;-65
2022/07/05 11:31:09;;;;;;;;;;;;;;;37.89;33.65;91048.59;4995586;28;19922;-65
2022/07/05 11:33:43;;;;;;;;;;;;;;;39.05;30.81;91048.22;4995417;28;19929;-66
2022/07/05 11:36:28;;;;;;;;;;;;;;;40.28;28.99;91046.97;4995225;28;19975;-66
2022/07/05 11:39:12;;;;;;;;;;;;;;;40.61;29.76;91037.38;4995372;28;19914;-66
2022/07/05 11:41:38;;;;;;;;;;;;;;;39.86;30.84;91043.97;4995128;28;19913;-66
2022/07/05 11:44:05;;;;;;;;;;;;;;;39.23;29.44;91052.81;4995320;28;19924;-65
2022/07/05 11:46:32;;;;;;;;;;;;;;;39.19;30.00;91043.91;4995292;28;19922;-65
2022/07/05 11:48:59;;;;;;;;;;;;;;;38.78;29.89;91043.03;4995286;28;20363;-65
2022/07/05 11:51:24;;;;;;;;;;;;;;;38.64;30.29;91050.16;4995182;28;19917;-65
2022/07/05 11:53:50;;;;;;;;;;;;;;;38.34;30.78;91046.59;4995087;28;20008;-65
2022/07/05 11:56:15;;;;;;;;;;;;;;;37.64;31.10;91041.53;4995097;28;19920;-65
2022/07/05 11:58:41;;;;;;;;;;;;;;;35.90;33.31;91041.56;4994962;28;19913;-65
2022/07/05 12:01:07;;;;;;;;;;;;;;;36.99;33.43;91034.09;4994987;28;20004;-65
2022/07/05 12:03:32;;;;;;;;;;;;;;;36.27;32.97;91042.22;4994576;28;19925;-65
2022/07/05 12:05:57;;;;;;;;;;;;;;;35.68;32.24;91033.41;4994841;28;19921;-65
2022/07/05 12:08:23;;;;;;;;;;;;;;;35.73;32.46;91035.53;4994808;28;20312;-65
2022/07/05 12:13:46;;;;;;;;;;;;;;;36.39;33.54;91027.44;4994586;28;20028;-65
2022/07/05 12:16:12;;;;;;;;;;;;;;;36.99;34.55;91034.09;4994881;28;19948;-65
2022/07/05 12:18:49;;;;;;;;;;;;;;;36.28;32.10;91024.34;4994557;28;19956;-65
2022/07/05 12:21:15;;;;;;;;;;;;;;;35.69;33.35;91023.88;4994532;28;20276;-65
2022/07/05 12:23:44;;;;;;;;;;;;;;;35.46;33.59;91019.72;4994413;28;19920;-65
2022/07/05 12:26:10;;;;;;;;;;;;;;;35.90;34.78;91022.94;4994472;28;19921;-65
2022/07/05 12:28:36;;;;;;;;;;;;;;;35.93;34.31;91019.22;4994183;28;19918;-65
2022/07/05 12:31:22;;;;;;;;;;;;;;;36.06;32.58;91021.06;4994723;28;20383;-65
2022/07/05 12:33:48;;;;;;;;;;;;;;;35.44;33.64;91016.66;4993774;28;19997;-65
2022/07/05 12:36:14;;;;;;;;;;;;;;;35.86;33.88;91007.72;4994372;28;19944;-65
2022/07/05 12:38:40;;;;;;;;;;;;;;;36.78;33.75;91002.63;4994274;28;19957;-66
2022/07/05 12:41:05;;;;;;;;;;;;;;;36.92;32.12;91001.94;4994196;28;20372;-66
2022/07/05 12:43:32;;;;;;;;;;;;;;;37.38;31.22;91007.94;4993928;28;19925;-65
2022/07/05 12:46:05;;;;;;;;;;;;;;;37.01;30.81;90998.34;4994330;28;19914;-65
2022/07/05 12:48:37;;;;;;;;;;;;;;;35.05;33.11;90993.44;4994031;28;19967;-65